sensor_id;sensor_type;location;lat;lon;timestamp;temperature;humidity
39925;DHT22;25592;49.986;11.618;2023-03-17T00:00:30;5.80;86.40
39925;DHT22;25592;49.986;11.618;2023-03-17T00:03:24;5.90;86.30
39925;DHT22;25592;49.986;11.618;2023-03-17T00:06:18;5.90;85.00
39925;DHT22;25592;49.986;11.618;2023-03-17T00:09:12;6.00;85.80
39925;DHT22;25592;49.986;11.618;2023-03-17T00:11:58;6.10;86.70
39925;DHT22;25592;49.986;11.618;2023-03-17T00:14:44;6.10;84.50
39925;DHT22;25592;49.986;11.618;2023-03-17T00:17:30;6.20;86.90
39925;DHT22;25592;49.986;11.618;2023-03-17T00:20:26;6.20;86.80
39925;DHT22;25592;49.986;11.618;2023-03-17T00:23:22;6.10;86.00
39925;DHT22;25592;49.986;11.618;2023-03-17T00:26:09;6.10;85.90
39925;DHT22;25592;49.986;11.618;2023-03-17T00:28:55;6.10;86.90
39925;DHT22;25592;49.986;11.618;2023-03-17T00:31:41;6.10;86.70
39925;DHT22;25592;49.986;11.618;2023-03-17T00:34:29;6.10;85.70
39925;DHT22;25592;49.986;11.618;2023-03-17T00:37:14;5.90;83.90
39925;DHT22;25592;49.986;11.618;2023-03-17T00:39:59;6.00;85.10
39925;DHT22;25592;49.986;11.618;2023-03-17T00:42:45;5.90;84.20
39925;DHT22;25592;49.986;11.618;2023-03-17T00:45:30;5.80;83.40
39925;DHT22;25592;49.986;11.618;2023-03-17T00:48:18;5.90;84.00
39925;DHT22;25592;49.986;11.618;2023-03-17T00:51:04;5.80;82.60
39925;DHT22;25592;49.986;11.618;2023-03-17T00:53:49;5.80;80.90
39925;DHT22;25592;49.986;11.618;2023-03-17T00:56:36;5.80;80.40
39925;DHT22;25592;49.986;11.618;2023-03-17T00:59:31;5.90;81.70
39925;DHT22;25592;49.986;11.618;2023-03-17T01:02:19;6.00;82.10
39925;DHT22;25592;49.986;11.618;2023-03-17T01:05:04;6.10;84.20
39925;DHT22;25592;49.986;11.618;2023-03-17T01:07:54;6.10;84.30
39925;DHT22;25592;49.986;11.618;2023-03-17T01:10:41;5.90;81.20
39925;DHT22;25592;49.986;11.618;2023-03-17T01:13:26;5.90;81.40
39925;DHT22;25592;49.986;11.618;2023-03-17T01:16:12;5.90;80.50
39925;DHT22;25592;49.986;11.618;2023-03-17T01:18:58;5.90;81.60
39925;DHT22;25592;49.986;11.618;2023-03-17T01:21:44;5.90;81.80
39925;DHT22;25592;49.986;11.618;2023-03-17T01:24:30;5.90;81.70
39925;DHT22;25592;49.986;11.618;2023-03-17T01:27:17;5.90;82.80
39925;DHT22;25592;49.986;11.618;2023-03-17T01:30:05;5.90;83.60
39925;DHT22;25592;49.986;11.618;2023-03-17T01:32:50;6.00;84.80
39925;DHT22;25592;49.986;11.618;2023-03-17T01:35:37;6.00;85.30
39925;DHT22;25592;49.986;11.618;2023-03-17T01:38:23;6.00;84.00
39925;DHT22;25592;49.986;11.618;2023-03-17T01:41:08;5.90;80.80
39925;DHT22;25592;49.986;11.618;2023-03-17T01:43:54;5.80;78.80
39925;DHT22;25592;49.986;11.618;2023-03-17T01:46:39;5.80;81.10
39925;DHT22;25592;49.986;11.618;2023-03-17T01:49:31;5.80;78.80
39925;DHT22;25592;49.986;11.618;2023-03-17T01:52:19;5.80;80.20
39925;DHT22;25592;49.986;11.618;2023-03-17T01:55:08;5.80;80.40
39925;DHT22;25592;49.986;11.618;2023-03-17T01:57:55;5.70;79.10
39925;DHT22;25592;49.986;11.618;2023-03-17T02:00:41;5.80;79.70
39925;DHT22;25592;49.986;11.618;2023-03-17T02:03:28;5.70;78.40
39925;DHT22;25592;49.986;11.618;2023-03-17T02:06:14;5.60;77.70
39925;DHT22;25592;49.986;11.618;2023-03-17T02:08:59;5.60;77.90
39925;DHT22;25592;49.986;11.618;2023-03-17T02:11:45;5.60;77.90
39925;DHT22;25592;49.986;11.618;2023-03-17T02:14:31;5.60;78.00
39925;DHT22;25592;49.986;11.618;2023-03-17T02:17:17;5.70;78.40
39925;DHT22;25592;49.986;11.618;2023-03-17T02:23:08;5.70;78.50
39925;DHT22;25592;49.986;11.618;2023-03-17T02:25:54;5.70;78.70
39925;DHT22;25592;49.986;11.618;2023-03-17T02:28:39;5.80;79.20
39925;DHT22;25592;49.986;11.618;2023-03-17T02:31:26;5.80;78.70
39925;DHT22;25592;49.986;11.618;2023-03-17T02:34:11;5.90;80.00
39925;DHT22;25592;49.986;11.618;2023-03-17T02:36:57;6.00;80.00
39925;DHT22;25592;49.986;11.618;2023-03-17T02:39:43;6.00;80.30
39925;DHT22;25592;49.986;11.618;2023-03-17T02:42:28;6.00;79.50
39925;DHT22;25592;49.986;11.618;2023-03-17T02:45:14;5.90;79.40
39925;DHT22;25592;49.986;11.618;2023-03-17T02:47:59;5.70;78.50
39925;DHT22;25592;49.986;11.618;2023-03-17T02:50:45;5.80;79.50
39925;DHT22;25592;49.986;11.618;2023-03-17T02:53:31;5.80;78.40
39925;DHT22;25592;49.986;11.618;2023-03-17T02:56:16;5.70;77.70
39925;DHT22;25592;49.986;11.618;2023-03-17T02:59:02;5.80;78.30
39925;DHT22;25592;49.986;11.618;2023-03-17T03:01:47;5.80;77.30
39925;DHT22;25592;49.986;11.618;2023-03-17T03:04:34;5.80;78.80
39925;DHT22;25592;49.986;11.618;2023-03-17T03:07:20;5.80;77.60
39925;DHT22;25592;49.986;11.618;2023-03-17T03:10:05;5.70;77.70
39925;DHT22;25592;49.986;11.618;2023-03-17T03:12:51;5.80;76.90
39925;DHT22;25592;49.986;11.618;2023-03-17T03:15:40;5.80;77.70
39925;DHT22;25592;49.986;11.618;2023-03-17T03:18:25;5.80;78.30
39925;DHT22;25592;49.986;11.618;2023-03-17T03:21:10;5.70;78.00
39925;DHT22;25592;49.986;11.618;2023-03-17T03:23:56;5.60;78.20
39925;DHT22;25592;49.986;11.618;2023-03-17T03:26:41;5.60;78.50
39925;DHT22;25592;49.986;11.618;2023-03-17T03:29:27;5.60;78.50
39925;DHT22;25592;49.986;11.618;2023-03-17T03:32:12;5.70;78.10
39925;DHT22;25592;49.986;11.618;2023-03-17T03:34:57;5.70;78.60
39925;DHT22;25592;49.986;11.618;2023-03-17T03:37:43;5.70;78.70
39925;DHT22;25592;49.986;11.618;2023-03-17T03:40:28;5.70;80.50
39925;DHT22;25592;49.986;11.618;2023-03-17T03:43:14;5.90;81.30
39925;DHT22;25592;49.986;11.618;2023-03-17T03:46:07;6.00;81.80
39925;DHT22;25592;49.986;11.618;2023-03-17T03:48:53;5.90;80.80
39925;DHT22;25592;49.986;11.618;2023-03-17T03:51:39;5.80;77.80
39925;DHT22;25592;49.986;11.618;2023-03-17T03:54:24;5.80;79.70
39925;DHT22;25592;49.986;11.618;2023-03-17T03:57:10;5.80;81.10
39925;DHT22;25592;49.986;11.618;2023-03-17T03:59:55;5.90;81.70
39925;DHT22;25592;49.986;11.618;2023-03-17T04:02:40;6.00;82.60
39925;DHT22;25592;49.986;11.618;2023-03-17T04:05:29;6.00;83.10
39925;DHT22;25592;49.986;11.618;2023-03-17T04:08:14;6.00;83.50
39925;DHT22;25592;49.986;11.618;2023-03-17T04:11:00;6.00;84.30
39925;DHT22;25592;49.986;11.618;2023-03-17T04:13:45;6.00;84.80
39925;DHT22;25592;49.986;11.618;2023-03-17T04:16:31;6.00;84.50
39925;DHT22;25592;49.986;11.618;2023-03-17T04:19:17;5.90;84.00
39925;DHT22;25592;49.986;11.618;2023-03-17T04:22:03;5.90;84.80
39925;DHT22;25592;49.986;11.618;2023-03-17T04:24:49;5.90;84.40
39925;DHT22;25592;49.986;11.618;2023-03-17T04:27:35;5.90;84.30
39925;DHT22;25592;49.986;11.618;2023-03-17T04:30:20;5.90;85.10
39925;DHT22;25592;49.986;11.618;2023-03-17T04:33:05;5.90;85.10
39925;DHT22;25592;49.986;11.618;2023-03-17T04:35:51;5.90;83.40
39925;DHT22;25592;49.986;11.618;2023-03-17T04:38:36;5.80;84.00
39925;DHT22;25592;49.986;11.618;2023-03-17T04:41:22;5.80;83.80
39925;DHT22;25592;49.986;11.618;2023-03-17T04:44:07;5.90;84.80
39925;DHT22;25592;49.986;11.618;2023-03-17T04:46:52;5.90;85.40
39925;DHT22;25592;49.986;11.618;2023-03-17T04:49:38;5.90;85.50
39925;DHT22;25592;49.986;11.618;2023-03-17T04:52:23;5.80;84.60
39925;DHT22;25592;49.986;11.618;2023-03-17T04:55:09;5.90;85.00
39925;DHT22;25592;49.986;11.618;2023-03-17T04:57:56;5.90;86.00
39925;DHT22;25592;49.986;11.618;2023-03-17T05:00:41;5.80;85.90
39925;DHT22;25592;49.986;11.618;2023-03-17T05:03:27;5.80;86.20
39925;DHT22;25592;49.986;11.618;2023-03-17T05:06:14;5.90;86.30
39925;DHT22;25592;49.986;11.618;2023-03-17T05:09:00;5.80;86.80
39925;DHT22;25592;49.986;11.618;2023-03-17T05:11:45;5.80;87.40
39925;DHT22;25592;49.986;11.618;2023-03-17T05:14:31;5.90;87.00
39925;DHT22;25592;49.986;11.618;2023-03-17T05:17:16;5.80;87.50
39925;DHT22;25592;49.986;11.618;2023-03-17T05:20:02;5.90;87.10
39925;DHT22;25592;49.986;11.618;2023-03-17T05:22:48;5.80;87.70
39925;DHT22;25592;49.986;11.618;2023-03-17T05:25:33;5.80;87.30
39925;DHT22;25592;49.986;11.618;2023-03-17T05:28:19;5.70;87.10
39925;DHT22;25592;49.986;11.618;2023-03-17T05:31:05;5.80;87.70
39925;DHT22;25592;49.986;11.618;2023-03-17T05:33:52;5.70;87.60
39925;DHT22;25592;49.986;11.618;2023-03-17T05:36:38;5.70;87.70
39925;DHT22;25592;49.986;11.618;2023-03-17T05:39:23;5.70;88.20
39925;DHT22;25592;49.986;11.618;2023-03-17T05:42:09;5.60;88.20
39925;DHT22;25592;49.986;11.618;2023-03-17T05:44:54;5.70;88.60
39925;DHT22;25592;49.986;11.618;2023-03-17T05:47:39;5.70;88.50
39925;DHT22;25592;49.986;11.618;2023-03-17T05:50:25;5.80;89.00
39925;DHT22;25592;49.986;11.618;2023-03-17T05:53:11;5.70;88.60
39925;DHT22;25592;49.986;11.618;2023-03-17T05:55:56;5.70;88.70
39925;DHT22;25592;49.986;11.618;2023-03-17T05:58:41;5.70;89.20
39925;DHT22;25592;49.986;11.618;2023-03-17T06:01:28;5.70;89.30
39925;DHT22;25592;49.986;11.618;2023-03-17T06:04:13;5.60;89.10
39925;DHT22;25592;49.986;11.618;2023-03-17T06:06:58;5.60;88.70
39925;DHT22;25592;49.986;11.618;2023-03-17T06:09:44;5.70;89.40
39925;DHT22;25592;49.986;11.618;2023-03-17T06:12:30;5.70;89.10
39925;DHT22;25592;49.986;11.618;2023-03-17T06:15:15;5.70;89.10
39925;DHT22;25592;49.986;11.618;2023-03-17T06:18:02;5.80;90.50
39925;DHT22;25592;49.986;11.618;2023-03-17T06:20:49;5.70;88.90
39925;DHT22;25592;49.986;11.618;2023-03-17T06:23:34;5.80;89.10
39925;DHT22;25592;49.986;11.618;2023-03-17T06:26:20;5.80;88.90
39925;DHT22;25592;49.986;11.618;2023-03-17T06:29:06;5.80;89.50
39925;DHT22;25592;49.986;11.618;2023-03-17T06:31:53;5.80;88.80
39925;DHT22;25592;49.986;11.618;2023-03-17T06:34:39;5.80;88.60
39925;DHT22;25592;49.986;11.618;2023-03-17T06:37:27;5.80;89.00
39925;DHT22;25592;49.986;11.618;2023-03-17T06:40:13;5.90;89.40
39925;DHT22;25592;49.986;11.618;2023-03-17T06:43:00;5.90;88.40
39925;DHT22;25592;49.986;11.618;2023-03-17T06:45:47;5.90;88.30
39925;DHT22;25592;49.986;11.618;2023-03-17T06:48:32;5.90;87.70
39925;DHT22;25592;49.986;11.618;2023-03-17T06:51:17;5.90;87.30
39925;DHT22;25592;49.986;11.618;2023-03-17T06:54:03;6.00;87.20
39925;DHT22;25592;49.986;11.618;2023-03-17T06:56:48;5.90;86.50
39925;DHT22;25592;49.986;11.618;2023-03-17T06:59:34;6.00;86.50
39925;DHT22;25592;49.986;11.618;2023-03-17T07:02:19;6.10;84.80
39925;DHT22;25592;49.986;11.618;2023-03-17T07:05:05;6.20;84.50
39925;DHT22;25592;49.986;11.618;2023-03-17T07:07:50;6.30;83.60
39925;DHT22;25592;49.986;11.618;2023-03-17T07:10:36;6.40;79.40
39925;DHT22;25592;49.986;11.618;2023-03-17T07:13:21;6.40;79.20
39925;DHT22;25592;49.986;11.618;2023-03-17T07:16:07;6.50;78.60
39925;DHT22;25592;49.986;11.618;2023-03-17T07:18:52;6.60;77.00
39925;DHT22;25592;49.986;11.618;2023-03-17T07:21:38;6.70;79.00
39925;DHT22;25592;49.986;11.618;2023-03-17T07:24:24;6.90;79.00
39925;DHT22;25592;49.986;11.618;2023-03-17T07:27:10;6.90;77.70
39925;DHT22;25592;49.986;11.618;2023-03-17T07:29:55;7.00;77.00
39925;DHT22;25592;49.986;11.618;2023-03-17T07:32:41;6.90;76.70
39925;DHT22;25592;49.986;11.618;2023-03-17T07:35:27;6.90;76.50
39925;DHT22;25592;49.986;11.618;2023-03-17T07:38:13;7.00;76.90
39925;DHT22;25592;49.986;11.618;2023-03-17T07:40:59;7.10;77.30
39925;DHT22;25592;49.986;11.618;2023-03-17T07:43:44;7.10;77.00
39925;DHT22;25592;49.986;11.618;2023-03-17T07:46:30;7.10;76.10
39925;DHT22;25592;49.986;11.618;2023-03-17T07:49:16;7.20;76.40
39925;DHT22;25592;49.986;11.618;2023-03-17T07:52:11;7.20;76.70
39925;DHT22;25592;49.986;11.618;2023-03-17T07:54:57;7.30;75.80
39925;DHT22;25592;49.986;11.618;2023-03-17T07:57:42;7.20;75.50
39925;DHT22;25592;49.986;11.618;2023-03-17T08:00:28;7.30;75.70
39925;DHT22;25592;49.986;11.618;2023-03-17T08:03:13;7.40;75.00
39925;DHT22;25592;49.986;11.618;2023-03-17T08:05:59;7.50;73.90
39925;DHT22;25592;49.986;11.618;2023-03-17T08:08:45;7.50;74.50
39925;DHT22;25592;49.986;11.618;2023-03-17T08:11:30;7.50;74.10
39925;DHT22;25592;49.986;11.618;2023-03-17T08:14:16;7.50;75.50
39925;DHT22;25592;49.986;11.618;2023-03-17T08:17:01;7.50;74.60
39925;DHT22;25592;49.986;11.618;2023-03-17T08:19:46;7.60;76.10
39925;DHT22;25592;49.986;11.618;2023-03-17T08:22:32;7.70;75.20
39925;DHT22;25592;49.986;11.618;2023-03-17T08:25:17;7.70;75.20
39925;DHT22;25592;49.986;11.618;2023-03-17T08:28:02;7.80;74.10
39925;DHT22;25592;49.986;11.618;2023-03-17T08:30:48;8.00;74.50
39925;DHT22;25592;49.986;11.618;2023-03-17T08:33:35;8.10;74.30
39925;DHT22;25592;49.986;11.618;2023-03-17T08:36:20;8.10;73.70
39925;DHT22;25592;49.986;11.618;2023-03-17T08:39:05;8.20;73.90
39925;DHT22;25592;49.986;11.618;2023-03-17T08:41:51;8.20;73.00
39925;DHT22;25592;49.986;11.618;2023-03-17T08:44:37;8.20;74.10
39925;DHT22;25592;49.986;11.618;2023-03-17T08:47:22;8.30;73.70
39925;DHT22;25592;49.986;11.618;2023-03-17T08:50:10;8.50;74.10
39925;DHT22;25592;49.986;11.618;2023-03-17T08:52:57;8.60;75.00
39925;DHT22;25592;49.986;11.618;2023-03-17T08:55:43;8.70;74.50
39925;DHT22;25592;49.986;11.618;2023-03-17T08:58:29;8.80;74.00
39925;DHT22;25592;49.986;11.618;2023-03-17T09:01:15;9.10;74.80
39925;DHT22;25592;49.986;11.618;2023-03-17T09:04:01;9.10;73.30
39925;DHT22;25592;49.986;11.618;2023-03-17T09:06:47;9.20;73.70
39925;DHT22;25592;49.986;11.618;2023-03-17T09:09:47;9.20;73.90
39925;DHT22;25592;49.986;11.618;2023-03-17T09:12:32;9.40;74.90
39925;DHT22;25592;49.986;11.618;2023-03-17T09:15:18;9.50;73.60
39925;DHT22;25592;49.986;11.618;2023-03-17T09:18:04;9.70;74.10
39925;DHT22;25592;49.986;11.618;2023-03-17T09:20:50;9.60;73.70
39925;DHT22;25592;49.986;11.618;2023-03-17T09:23:35;9.80;72.80
39925;DHT22;25592;49.986;11.618;2023-03-17T09:26:21;9.90;72.60
39925;DHT22;25592;49.986;11.618;2023-03-17T09:29:06;9.90;73.40
39925;DHT22;25592;49.986;11.618;2023-03-17T09:31:53;10.20;74.70
39925;DHT22;25592;49.986;11.618;2023-03-17T09:34:40;10.50;72.70
39925;DHT22;25592;49.986;11.618;2023-03-17T09:37:26;10.60;73.40
39925;DHT22;25592;49.986;11.618;2023-03-17T09:40:15;10.70;72.40
39925;DHT22;25592;49.986;11.618;2023-03-17T09:43:09;10.90;73.30
39925;DHT22;25592;49.986;11.618;2023-03-17T09:46:15;11.00;74.30
39925;DHT22;25592;49.986;11.618;2023-03-17T09:49:12;11.20;72.20
39925;DHT22;25592;49.986;11.618;2023-03-17T09:51:58;11.20;72.40
39925;DHT22;25592;49.986;11.618;2023-03-17T09:54:45;11.30;73.50
39925;DHT22;25592;49.986;11.618;2023-03-17T09:57:39;11.40;72.80
39925;DHT22;25592;49.986;11.618;2023-03-17T10:00:26;11.40;71.20
39925;DHT22;25592;49.986;11.618;2023-03-17T10:03:14;11.60;73.10
39925;DHT22;25592;49.986;11.618;2023-03-17T10:15:44;12.40;70.70
39925;DHT22;25592;49.986;11.618;2023-03-17T10:18:55;12.50;69.50
39925;DHT22;25592;49.986;11.618;2023-03-17T10:21:55;12.60;68.60
39925;DHT22;25592;49.986;11.618;2023-03-17T10:24:46;12.40;69.20
39925;DHT22;25592;49.986;11.618;2023-03-17T10:27:35;12.60;69.40
39925;DHT22;25592;49.986;11.618;2023-03-17T10:30:22;12.90;68.80
39925;DHT22;25592;49.986;11.618;2023-03-17T10:33:07;13.10;68.70
39925;DHT22;25592;49.986;11.618;2023-03-17T10:35:53;13.10;67.40
39925;DHT22;25592;49.986;11.618;2023-03-17T10:38:38;13.00;67.10
39925;DHT22;25592;49.986;11.618;2023-03-17T10:41:24;12.90;67.00
39925;DHT22;25592;49.986;11.618;2023-03-17T10:44:21;13.00;66.80
39925;DHT22;25592;49.986;11.618;2023-03-17T10:47:23;13.30;67.40
39925;DHT22;25592;49.986;11.618;2023-03-17T10:50:32;13.60;67.60
39925;DHT22;25592;49.986;11.618;2023-03-17T10:53:21;13.70;66.40
39925;DHT22;25592;49.986;11.618;2023-03-17T10:56:25;13.90;66.20
39925;DHT22;25592;49.986;11.618;2023-03-17T10:59:26;14.20;67.00
39925;DHT22;25592;49.986;11.618;2023-03-17T11:02:19;14.40;66.10
39925;DHT22;25592;49.986;11.618;2023-03-17T11:05:18;14.40;65.30
39925;DHT22;25592;49.986;11.618;2023-03-17T11:08:09;14.40;66.00
39925;DHT22;25592;49.986;11.618;2023-03-17T11:10:55;14.30;65.60
39925;DHT22;25592;49.986;11.618;2023-03-17T11:13:41;14.50;65.90
39925;DHT22;25592;49.986;11.618;2023-03-17T11:16:26;14.30;65.90
39925;DHT22;25592;49.986;11.618;2023-03-17T11:19:14;14.60;65.20
39925;DHT22;25592;49.986;11.618;2023-03-17T11:22:10;14.70;65.30
39925;DHT22;25592;49.986;11.618;2023-03-17T11:25:12;14.90;66.60
39925;DHT22;25592;49.986;11.618;2023-03-17T11:31:07;15.00;64.90
39925;DHT22;25592;49.986;11.618;2023-03-17T11:34:20;15.00;66.60
39925;DHT22;25592;49.986;11.618;2023-03-17T11:46:36;15.70;63.90
39925;DHT22;25592;49.986;11.618;2023-03-17T11:52:30;15.90;64.90
39925;DHT22;25592;49.986;11.618;2023-03-17T11:55:29;16.20;63.70
39925;DHT22;25592;49.986;11.618;2023-03-17T11:58:35;16.20;63.50
39925;DHT22;25592;49.986;11.618;2023-03-17T12:01:29;16.30;62.90
39925;DHT22;25592;49.986;11.618;2023-03-17T12:04:22;16.40;63.30
39925;DHT22;25592;49.986;11.618;2023-03-17T12:07:17;15.90;63.00
39925;DHT22;25592;49.986;11.618;2023-03-17T12:10:09;16.40;64.00
39925;DHT22;25592;49.986;11.618;2023-03-17T12:15:53;16.30;63.30
39925;DHT22;25592;49.986;11.618;2023-03-17T12:21:45;15.70;63.50
39925;DHT22;25592;49.986;11.618;2023-03-17T12:24:43;15.60;63.10
39925;DHT22;25592;49.986;11.618;2023-03-17T12:27:37;15.30;63.00
39925;DHT22;25592;49.986;11.618;2023-03-17T12:33:35;15.00;63.80
39925;DHT22;25592;49.986;11.618;2023-03-17T12:36:22;15.10;63.50
39925;DHT22;25592;49.986;11.618;2023-03-17T12:39:13;15.00;63.80
39925;DHT22;25592;49.986;11.618;2023-03-17T12:51:09;15.70;64.30
39925;DHT22;25592;49.986;11.618;2023-03-17T12:54:01;15.90;62.70
39925;DHT22;25592;49.986;11.618;2023-03-17T12:56:48;16.10;62.40
39925;DHT22;25592;49.986;11.618;2023-03-17T12:59:35;16.20;62.70
39925;DHT22;25592;49.986;11.618;2023-03-17T13:05:16;16.40;62.00
39925;DHT22;25592;49.986;11.618;2023-03-17T13:08:17;16.70;63.00
39925;DHT22;25592;49.986;11.618;2023-03-17T13:14:45;16.90;61.60
39925;DHT22;25592;49.986;11.618;2023-03-17T13:17:32;17.10;61.40
39925;DHT22;25592;49.986;11.618;2023-03-17T13:20:19;17.00;61.30
39925;DHT22;25592;49.986;11.618;2023-03-17T13:25:56;16.90;61.30
39925;DHT22;25592;49.986;11.618;2023-03-17T13:28:45;16.90;61.50
39925;DHT22;25592;49.986;11.618;2023-03-17T13:31:34;17.00;62.20
39925;DHT22;25592;49.986;11.618;2023-03-17T13:34:21;17.10;62.30
39925;DHT22;25592;49.986;11.618;2023-03-17T13:49:27;17.40;62.60
39925;DHT22;25592;49.986;11.618;2023-03-17T13:52:40;17.30;62.00
39925;DHT22;25592;49.986;11.618;2023-03-17T13:55:38;17.50;61.30
39925;DHT22;25592;49.986;11.618;2023-03-17T14:05:27;17.60;60.20
39925;DHT22;25592;49.986;11.618;2023-03-17T14:08:35;17.60;61.20
39925;DHT22;25592;49.986;11.618;2023-03-17T14:11:39;17.40;59.40
39925;DHT22;25592;49.986;11.618;2023-03-17T14:14:45;17.30;59.50
39925;DHT22;25592;49.986;11.618;2023-03-17T14:18:02;17.30;61.40
39925;DHT22;25592;49.986;11.618;2023-03-17T14:21:29;17.70;61.50
39925;DHT22;25592;49.986;11.618;2023-03-17T14:24:32;17.90;60.60
39925;DHT22;25592;49.986;11.618;2023-03-17T14:27:34;18.00;59.70
39925;DHT22;25592;49.986;11.618;2023-03-17T14:30:49;18.00;60.10
39925;DHT22;25592;49.986;11.618;2023-03-17T14:34:02;18.30;60.50
39925;DHT22;25592;49.986;11.618;2023-03-17T14:37:27;18.40;60.70
39925;DHT22;25592;49.986;11.618;2023-03-17T14:40:30;18.30;59.30
39925;DHT22;25592;49.986;11.618;2023-03-17T14:43:34;18.20;60.10
39925;DHT22;25592;49.986;11.618;2023-03-17T14:46:38;18.00;60.70
39925;DHT22;25592;49.986;11.618;2023-03-17T14:49:44;17.50;60.10
39925;DHT22;25592;49.986;11.618;2023-03-17T14:52:42;17.20;61.10
39925;DHT22;25592;49.986;11.618;2023-03-17T14:55:41;17.00;60.70
39925;DHT22;25592;49.986;11.618;2023-03-17T14:58:50;16.90;60.30
39925;DHT22;25592;49.986;11.618;2023-03-17T15:01:45;16.90;62.40
39925;DHT22;25592;49.986;11.618;2023-03-17T15:05:03;16.80;63.00
39925;DHT22;25592;49.986;11.618;2023-03-17T15:07:49;16.60;62.50
39925;DHT22;25592;49.986;11.618;2023-03-17T15:10:40;16.70;62.90
39925;DHT22;25592;49.986;11.618;2023-03-17T15:13:28;16.60;63.00
39925;DHT22;25592;49.986;11.618;2023-03-17T15:16:22;16.60;62.90
39925;DHT22;25592;49.986;11.618;2023-03-17T15:22:31;16.60;63.40
39925;DHT22;25592;49.986;11.618;2023-03-17T15:25:22;16.60;64.00
39925;DHT22;25592;49.986;11.618;2023-03-17T15:28:14;16.60;63.00
39925;DHT22;25592;49.986;11.618;2023-03-17T15:31:11;16.50;62.90
39925;DHT22;25592;49.986;11.618;2023-03-17T15:33:56;16.50;63.00
39925;DHT22;25592;49.986;11.618;2023-03-17T15:36:42;16.60;64.40
39925;DHT22;25592;49.986;11.618;2023-03-17T15:39:31;16.70;64.50
39925;DHT22;25592;49.986;11.618;2023-03-17T15:42:19;16.60;63.60
39925;DHT22;25592;49.986;11.618;2023-03-17T15:45:06;16.50;62.40
39925;DHT22;25592;49.986;11.618;2023-03-17T15:47:52;16.60;62.20
39925;DHT22;25592;49.986;11.618;2023-03-17T15:50:39;16.50;62.10
39925;DHT22;25592;49.986;11.618;2023-03-17T15:53:25;16.60;62.60
39925;DHT22;25592;49.986;11.618;2023-03-17T15:56:16;16.80;63.30
39925;DHT22;25592;49.986;11.618;2023-03-17T15:59:03;16.80;63.20
39925;DHT22;25592;49.986;11.618;2023-03-17T16:01:48;16.70;63.00
39925;DHT22;25592;49.986;11.618;2023-03-17T16:04:33;16.70;63.50
39925;DHT22;25592;49.986;11.618;2023-03-17T16:07:19;16.50;62.80
39925;DHT22;25592;49.986;11.618;2023-03-17T16:10:17;16.40;63.60
39925;DHT22;25592;49.986;11.618;2023-03-17T16:13:03;16.30;63.90
39925;DHT22;25592;49.986;11.618;2023-03-17T16:15:53;16.20;63.70
39925;DHT22;25592;49.986;11.618;2023-03-17T16:18:39;16.10;63.30
39925;DHT22;25592;49.986;11.618;2023-03-17T16:21:27;16.00;63.50
39925;DHT22;25592;49.986;11.618;2023-03-17T16:24:18;16.10;63.90
39925;DHT22;25592;49.986;11.618;2023-03-17T16:27:13;16.10;64.20
39925;DHT22;25592;49.986;11.618;2023-03-17T16:29:58;16.10;64.50
39925;DHT22;25592;49.986;11.618;2023-03-17T16:32:44;16.10;64.60
39925;DHT22;25592;49.986;11.618;2023-03-17T16:35:29;16.10;66.50
39925;DHT22;25592;49.986;11.618;2023-03-17T16:38:17;16.00;66.30
39925;DHT22;25592;49.986;11.618;2023-03-17T16:41:23;16.10;68.10
39925;DHT22;25592;49.986;11.618;2023-03-17T16:44:10;15.90;66.40
39925;DHT22;25592;49.986;11.618;2023-03-17T16:46:55;15.80;66.50
39925;DHT22;25592;49.986;11.618;2023-03-17T16:49:40;15.60;66.40
39925;DHT22;25592;49.986;11.618;2023-03-17T16:52:26;15.50;67.80
39925;DHT22;25592;49.986;11.618;2023-03-17T16:55:14;15.50;67.50
39925;DHT22;25592;49.986;11.618;2023-03-17T16:58:03;15.50;68.40
39925;DHT22;25592;49.986;11.618;2023-03-17T17:00:51;15.40;68.30
39925;DHT22;25592;49.986;11.618;2023-03-17T17:03:38;15.40;68.90
39925;DHT22;25592;49.986;11.618;2023-03-17T17:06:23;15.20;67.90
39925;DHT22;25592;49.986;11.618;2023-03-17T17:09:09;15.10;68.20
39925;DHT22;25592;49.986;11.618;2023-03-17T17:11:54;15.00;68.00
39925;DHT22;25592;49.986;11.618;2023-03-17T17:14:40;14.90;68.20
39925;DHT22;25592;49.986;11.618;2023-03-17T17:17:26;14.80;68.60
39925;DHT22;25592;49.986;11.618;2023-03-17T17:20:24;14.80;69.10
39925;DHT22;25592;49.986;11.618;2023-03-17T17:23:13;14.70;69.20
39925;DHT22;25592;49.986;11.618;2023-03-17T17:25:59;14.60;69.40
39925;DHT22;25592;49.986;11.618;2023-03-17T17:28:44;14.40;68.70
39925;DHT22;25592;49.986;11.618;2023-03-17T17:31:30;14.30;68.90
39925;DHT22;25592;49.986;11.618;2023-03-17T17:34:15;14.30;69.70
39925;DHT22;25592;49.986;11.618;2023-03-17T17:37:01;14.20;69.30
39925;DHT22;25592;49.986;11.618;2023-03-17T17:39:46;14.10;69.50
39925;DHT22;25592;49.986;11.618;2023-03-17T17:42:32;14.00;69.80
39925;DHT22;25592;49.986;11.618;2023-03-17T17:45:17;14.00;69.60
39925;DHT22;25592;49.986;11.618;2023-03-17T17:48:02;14.00;69.50
39925;DHT22;25592;49.986;11.618;2023-03-17T17:50:48;13.90;68.80
39925;DHT22;25592;49.986;11.618;2023-03-17T17:53:34;14.00;69.50
39925;DHT22;25592;49.986;11.618;2023-03-17T17:56:21;14.00;68.80
39925;DHT22;25592;49.986;11.618;2023-03-17T17:59:06;13.90;69.50
39925;DHT22;25592;49.986;11.618;2023-03-17T18:01:52;14.00;69.40
39925;DHT22;25592;49.986;11.618;2023-03-17T18:04:37;14.10;69.40
39925;DHT22;25592;49.986;11.618;2023-03-17T18:07:22;13.90;70.60
39925;DHT22;25592;49.986;11.618;2023-03-17T18:10:16;13.90;70.40
39925;DHT22;25592;49.986;11.618;2023-03-17T18:13:01;13.80;70.60
39925;DHT22;25592;49.986;11.618;2023-03-17T18:15:47;13.90;70.70
39925;DHT22;25592;49.986;11.618;2023-03-17T18:18:32;13.90;71.40
39925;DHT22;25592;49.986;11.618;2023-03-17T18:21:17;13.80;72.20
39925;DHT22;25592;49.986;11.618;2023-03-17T18:24:04;13.80;72.20
39925;DHT22;25592;49.986;11.618;2023-03-17T18:26:49;13.80;72.80
39925;DHT22;25592;49.986;11.618;2023-03-17T18:29:35;13.80;72.90
39925;DHT22;25592;49.986;11.618;2023-03-17T18:32:21;13.80;73.80
39925;DHT22;25592;49.986;11.618;2023-03-17T18:35:12;13.70;72.80
39925;DHT22;25592;49.986;11.618;2023-03-17T18:37:59;13.70;73.90
39925;DHT22;25592;49.986;11.618;2023-03-17T18:40:45;13.60;73.20
39925;DHT22;25592;49.986;11.618;2023-03-17T18:43:30;13.60;72.80
39925;DHT22;25592;49.986;11.618;2023-03-17T18:46:16;13.50;73.90
39925;DHT22;25592;49.986;11.618;2023-03-17T18:49:05;13.40;73.80
39925;DHT22;25592;49.986;11.618;2023-03-17T18:51:51;13.30;74.90
39925;DHT22;25592;49.986;11.618;2023-03-17T18:54:37;13.30;73.80
39925;DHT22;25592;49.986;11.618;2023-03-17T18:57:22;13.30;74.30